sensor_id;sensor_type;location;lat;lon;timestamp;P1;durP1;ratioP1;P2;durP2;ratioP2
48516;SDS011;34310;51.904;4.256;2022-07-30T00:00:58;3.30;;;1.27;;
48516;SDS011;34310;51.904;4.256;2022-07-30T00:03:25;3.33;;;1.50;;
48516;SDS011;34310;51.904;4.256;2022-07-30T00:05:53;2.05;;;1.40;;
48516;SDS011;34310;51.904;4.256;2022-07-30T00:08:21;1.73;;;1.45;;
48516;SDS011;34310;51.904;4.256;2022-07-30T00:10:49;4.10;;;1.50;;
48516;SDS011;34310;51.904;4.256;2022-07-30T00:13:17;1.90;;;1.38;;
48516;SDS011;34310;51.904;4.256;2022-07-30T00:15:44;4.13;;;1.50;;
48516;SDS011;34310;51.904;4.256;2022-07-30T00:18:11;2.90;;;1.30;;
48516;SDS011;34310;51.904;4.256;2022-07-30T00:20:39;5.40;;;1.60;;
48516;SDS011;34310;51.904;4.256;2022-07-30T00:23:09;3.50;;;1.40;;
48516;SDS011;34310;51.904;4.256;2022-07-30T00:25:37;1.52;;;1.42;;
48516;SDS011;34310;51.904;4.256;2022-07-30T00:28:04;2.47;;;1.52;;
48516;SDS011;34310;51.904;4.256;2022-07-30T00:30:31;2.47;;;1.42;;
48516;SDS011;34310;51.904;4.256;2022-07-30T00:32:59;2.83;;;1.35;;
48516;SDS011;34310;51.904;4.256;2022-07-30T00:35:26;1.65;;;1.42;;
48516;SDS011;34310;51.904;4.256;2022-07-30T00:37:53;3.03;;;1.65;;
48516;SDS011;34310;51.904;4.256;2022-07-30T00:40:21;2.40;;;1.38;;
48516;SDS011;34310;51.904;4.256;2022-07-30T00:42:49;2.97;;;1.50;;
48516;SDS011;34310;51.904;4.256;2022-07-30T00:45:16;1.63;;;1.30;;
48516;SDS011;34310;51.904;4.256;2022-07-30T00:47:44;2.45;;;1.50;;
48516;SDS011;34310;51.904;4.256;2022-07-30T00:50:12;2.95;;;1.73;;
48516;SDS011;34310;51.904;4.256;2022-07-30T00:52:41;1.65;;;1.23;;
48516;SDS011;34310;51.904;4.256;2022-07-30T00:55:09;2.08;;;1.35;;
48516;SDS011;34310;51.904;4.256;2022-07-30T00:57:38;2.53;;;1.40;;
48516;SDS011;34310;51.904;4.256;2022-07-30T01:00:08;4.03;;;1.50;;
48516;SDS011;34310;51.904;4.256;2022-07-30T01:02:38;2.80;;;1.40;;
48516;SDS011;34310;51.904;4.256;2022-07-30T01:05:06;2.28;;;1.20;;
48516;SDS011;34310;51.904;4.256;2022-07-30T01:07:34;3.20;;;1.40;;
48516;SDS011;34310;51.904;4.256;2022-07-30T01:10:03;3.60;;;1.50;;
48516;SDS011;34310;51.904;4.256;2022-07-30T01:12:32;3.58;;;1.15;;
48516;SDS011;34310;51.904;4.256;2022-07-30T01:15:00;1.65;;;1.30;;
48516;SDS011;34310;51.904;4.256;2022-07-30T01:17:30;1.98;;;1.35;;
48516;SDS011;34310;51.904;4.256;2022-07-30T01:20:00;1.50;;;1.30;;
48516;SDS011;34310;51.904;4.256;2022-07-30T01:23:26;1.88;;;1.38;;
48516;SDS011;34310;51.904;4.256;2022-07-30T01:25:47;1.30;;;1.20;;
48516;SDS011;34310;51.904;4.256;2022-07-30T01:28:23;1.63;;;1.20;;
48516;SDS011;34310;51.904;4.256;2022-07-30T01:31:00;1.88;;;1.17;;
48516;SDS011;34310;51.904;4.256;2022-07-30T01:33:29;1.92;;;1.30;;
48516;SDS011;34310;51.904;4.256;2022-07-30T01:35:59;1.83;;;1.27;;
48516;SDS011;34310;51.904;4.256;2022-07-30T01:38:27;1.77;;;1.27;;
48516;SDS011;34310;51.904;4.256;2022-07-30T01:41:00;2.22;;;1.42;;
48516;SDS011;34310;51.904;4.256;2022-07-30T01:43:30;1.63;;;1.05;;
48516;SDS011;34310;51.904;4.256;2022-07-30T01:46:01;1.35;;;1.00;;
48516;SDS011;34310;51.904;4.256;2022-07-30T01:48:29;2.65;;;1.30;;
48516;SDS011;34310;51.904;4.256;2022-07-30T01:51:01;3.95;;;1.40;;
48516;SDS011;34310;51.904;4.256;2022-07-30T01:53:31;1.67;;;1.23;;
48516;SDS011;34310;51.904;4.256;2022-07-30T01:56:02;2.47;;;1.20;;
48516;SDS011;34310;51.904;4.256;2022-07-30T01:58:36;3.55;;;1.38;;
48516;SDS011;34310;51.904;4.256;2022-07-30T02:01:05;1.95;;;1.40;;
48516;SDS011;34310;51.904;4.256;2022-07-30T02:03:33;3.55;;;1.15;;
48516;SDS011;34310;51.904;4.256;2022-07-30T02:06:07;3.25;;;1.33;;
48516;SDS011;34310;51.904;4.256;2022-07-30T02:08:45;2.65;;;1.50;;
48516;SDS011;34310;51.904;4.256;2022-07-30T02:11:15;2.22;;;1.40;;
48516;SDS011;34310;51.904;4.256;2022-07-30T02:14:02;1.23;;;1.13;;
48516;SDS011;34310;51.904;4.256;2022-07-30T02:16:43;2.30;;;1.20;;
48516;SDS011;34310;51.904;4.256;2022-07-30T02:19:16;2.23;;;1.10;;
48516;SDS011;34310;51.904;4.256;2022-07-30T02:21:52;1.40;;;1.30;;
48516;SDS011;34310;51.904;4.256;2022-07-30T02:24:34;1.65;;;1.52;;
48516;SDS011;34310;51.904;4.256;2022-07-30T02:27:09;4.03;;;1.23;;
48516;SDS011;34310;51.904;4.256;2022-07-30T02:29:43;1.27;;;0.93;;
48516;SDS011;34310;51.904;4.256;2022-07-30T02:32:13;2.13;;;1.30;;
48516;SDS011;34310;51.904;4.256;2022-07-30T02:34:42;1.55;;;1.10;;
48516;SDS011;34310;51.904;4.256;2022-07-30T02:37:15;2.05;;;1.35;;
48516;SDS011;34310;51.904;4.256;2022-07-30T02:40:09;1.75;;;1.33;;
48516;SDS011;34310;51.904;4.256;2022-07-30T02:42:41;2.08;;;1.40;;
48516;SDS011;34310;51.904;4.256;2022-07-30T02:45:10;2.65;;;1.00;;
48516;SDS011;34310;51.904;4.256;2022-07-30T02:47:41;2.95;;;1.25;;
48516;SDS011;34310;51.904;4.256;2022-07-30T02:50:10;1.45;;;1.20;;
48516;SDS011;34310;51.904;4.256;2022-07-30T02:52:39;1.30;;;1.10;;
48516;SDS011;34310;51.904;4.256;2022-07-30T02:55:08;1.23;;;1.10;;
48516;SDS011;34310;51.904;4.256;2022-07-30T02:57:38;1.30;;;1.20;;
48516;SDS011;34310;51.904;4.256;2022-07-30T03:00:08;1.52;;;1.10;;
48516;SDS011;34310;51.904;4.256;2022-07-30T03:02:38;1.17;;;1.00;;
48516;SDS011;34310;51.904;4.256;2022-07-30T03:05:09;1.80;;;1.00;;
48516;SDS011;34310;51.904;4.256;2022-07-30T03:07:38;1.52;;;1.10;;
48516;SDS011;34310;51.904;4.256;2022-07-30T03:10:07;2.25;;;1.33;;
48516;SDS011;34310;51.904;4.256;2022-07-30T03:12:36;1.33;;;1.20;;
48516;SDS011;34310;51.904;4.256;2022-07-30T03:15:06;1.63;;;1.00;;
48516;SDS011;34310;51.904;4.256;2022-07-30T03:17:36;1.42;;;1.00;;
48516;SDS011;34310;51.904;4.256;2022-07-30T03:20:08;1.42;;;1.00;;
48516;SDS011;34310;51.904;4.256;2022-07-30T03:22:43;1.23;;;1.13;;
48516;SDS011;34310;51.904;4.256;2022-07-30T03:25:14;2.20;;;1.00;;
48516;SDS011;34310;51.904;4.256;2022-07-30T03:27:44;2.03;;;1.05;;
48516;SDS011;34310;51.904;4.256;2022-07-30T03:30:13;1.17;;;1.00;;
48516;SDS011;34310;51.904;4.256;2022-07-30T03:32:41;1.45;;;1.00;;
48516;SDS011;34310;51.904;4.256;2022-07-30T03:35:09;0.95;;;0.90;;
48516;SDS011;34310;51.904;4.256;2022-07-30T03:37:42;1.27;;;1.05;;
48516;SDS011;34310;51.904;4.256;2022-07-30T03:40:12;1.42;;;1.30;;
48516;SDS011;34310;51.904;4.256;2022-07-30T03:42:40;1.40;;;1.20;;
48516;SDS011;34310;51.904;4.256;2022-07-30T03:45:08;1.25;;;1.05;;
48516;SDS011;34310;51.904;4.256;2022-07-30T03:47:36;1.67;;;1.00;;
48516;SDS011;34310;51.904;4.256;2022-07-30T03:50:05;1.00;;;0.90;;
48516;SDS011;34310;51.904;4.256;2022-07-30T03:52:33;0.90;;;0.90;;
48516;SDS011;34310;51.904;4.256;2022-07-30T03:55:07;1.10;;;1.00;;
48516;SDS011;34310;51.904;4.256;2022-07-30T03:57:36;1.08;;;1.00;;
48516;SDS011;34310;51.904;4.256;2022-07-30T04:00:05;1.17;;;1.02;;
48516;SDS011;34310;51.904;4.256;2022-07-30T04:02:41;1.63;;;1.15;;
48516;SDS011;34310;51.904;4.256;2022-07-30T04:05:10;1.90;;;1.10;;
48516;SDS011;34310;51.904;4.256;2022-07-30T04:07:38;1.70;;;1.23;;
48516;SDS011;34310;51.904;4.256;2022-07-30T04:10:10;1.20;;;1.02;;
48516;SDS011;34310;51.904;4.256;2022-07-30T04:12:39;0.95;;;0.88;;
48516;SDS011;34310;51.904;4.256;2022-07-30T04:15:06;2.85;;;1.30;;
48516;SDS011;34310;51.904;4.256;2022-07-30T04:17:56;1.50;;;1.17;;
48516;SDS011;34310;51.904;4.256;2022-07-30T04:20:32;1.10;;;1.00;;
48516;SDS011;34310;51.904;4.256;2022-07-30T04:23:04;1.85;;;1.10;;
48516;SDS011;34310;51.904;4.256;2022-07-30T04:25:33;0.93;;;0.90;;
48516;SDS011;34310;51.904;4.256;2022-07-30T04:28:01;1.20;;;1.08;;
48516;SDS011;34310;51.904;4.256;2022-07-30T04:30:30;1.15;;;0.90;;
48516;SDS011;34310;51.904;4.256;2022-07-30T04:33:01;1.35;;;0.95;;
48516;SDS011;34310;51.904;4.256;2022-07-30T04:35:30;0.95;;;0.90;;
48516;SDS011;34310;51.904;4.256;2022-07-30T04:38:16;1.85;;;1.15;;
48516;SDS011;34310;51.904;4.256;2022-07-30T04:40:44;2.08;;;1.20;;
48516;SDS011;34310;51.904;4.256;2022-07-30T04:43:13;1.23;;;0.93;;
48516;SDS011;34310;51.904;4.256;2022-07-30T04:45:40;1.67;;;0.90;;
48516;SDS011;34310;51.904;4.256;2022-07-30T04:48:08;1.10;;;1.00;;
48516;SDS011;34310;51.904;4.256;2022-07-30T04:50:37;1.67;;;1.23;;
48516;SDS011;34310;51.904;4.256;2022-07-30T04:53:06;1.02;;;0.95;;
48516;SDS011;34310;51.904;4.256;2022-07-30T04:55:36;1.05;;;0.95;;
48516;SDS011;34310;51.904;4.256;2022-07-30T04:58:07;1.38;;;1.00;;
48516;SDS011;34310;51.904;4.256;2022-07-30T05:00:36;1.38;;;0.90;;
48516;SDS011;34310;51.904;4.256;2022-07-30T05:03:06;0.98;;;0.82;;
48516;SDS011;34310;51.904;4.256;2022-07-30T05:05:36;1.70;;;0.90;;
48516;SDS011;34310;51.904;4.256;2022-07-30T05:08:05;1.23;;;1.00;;
48516;SDS011;34310;51.904;4.256;2022-07-30T05:10:34;1.73;;;1.08;;
48516;SDS011;34310;51.904;4.256;2022-07-30T05:13:03;1.00;;;0.90;;
48516;SDS011;34310;51.904;4.256;2022-07-30T05:15:35;1.88;;;1.08;;
48516;SDS011;34310;51.904;4.256;2022-07-30T05:18:03;1.00;;;0.90;;
48516;SDS011;34310;51.904;4.256;2022-07-30T05:20:30;1.63;;;1.00;;
48516;SDS011;34310;51.904;4.256;2022-07-30T05:22:58;1.17;;;1.08;;
48516;SDS011;34310;51.904;4.256;2022-07-30T05:25:26;1.23;;;0.90;;
48516;SDS011;34310;51.904;4.256;2022-07-30T05:27:53;2.45;;;1.00;;
48516;SDS011;34310;51.904;4.256;2022-07-30T05:30:22;1.15;;;1.05;;
48516;SDS011;34310;51.904;4.256;2022-07-30T05:32:52;1.40;;;1.17;;
48516;SDS011;34310;51.904;4.256;2022-07-30T05:35:21;1.20;;;1.10;;
48516;SDS011;34310;51.904;4.256;2022-07-30T05:37:48;1.17;;;0.90;;
48516;SDS011;34310;51.904;4.256;2022-07-30T05:40:16;1.58;;;0.90;;
48516;SDS011;34310;51.904;4.256;2022-07-30T05:42:43;1.45;;;0.85;;
48516;SDS011;34310;51.904;4.256;2022-07-30T05:45:10;1.20;;;1.02;;
48516;SDS011;34310;51.904;4.256;2022-07-30T05:47:38;1.20;;;0.90;;
48516;SDS011;34310;51.904;4.256;2022-07-30T05:50:05;1.35;;;1.00;;
48516;SDS011;34310;51.904;4.256;2022-07-30T05:52:33;1.58;;;0.80;;
48516;SDS011;34310;51.904;4.256;2022-07-30T05:55:00;1.20;;;0.82;;
48516;SDS011;34310;51.904;4.256;2022-07-30T05:57:27;1.60;;;1.00;;
48516;SDS011;34310;51.904;4.256;2022-07-30T05:59:54;1.30;;;0.98;;
48516;SDS011;34310;51.904;4.256;2022-07-30T06:02:22;1.02;;;0.93;;
48516;SDS011;34310;51.904;4.256;2022-07-30T06:04:50;1.00;;;0.90;;
48516;SDS011;34310;51.904;4.256;2022-07-30T06:07:17;2.05;;;1.10;;
48516;SDS011;34310;51.904;4.256;2022-07-30T06:09:45;1.30;;;0.93;;
48516;SDS011;34310;51.904;4.256;2022-07-30T06:12:12;1.17;;;0.90;;
48516;SDS011;34310;51.904;4.256;2022-07-30T06:14:40;1.70;;;0.90;;
48516;SDS011;34310;51.904;4.256;2022-07-30T06:17:07;2.47;;;0.90;;
48516;SDS011;34310;51.904;4.256;2022-07-30T06:19:34;1.20;;;0.90;;
48516;SDS011;34310;51.904;4.256;2022-07-30T06:22:02;0.93;;;0.90;;
48516;SDS011;34310;51.904;4.256;2022-07-30T06:24:32;1.27;;;1.00;;
48516;SDS011;34310;51.904;4.256;2022-07-30T06:27:00;1.35;;;0.90;;
48516;SDS011;34310;51.904;4.256;2022-07-30T06:29:28;1.45;;;1.02;;
48516;SDS011;34310;51.904;4.256;2022-07-30T06:31:55;1.15;;;1.00;;
48516;SDS011;34310;51.904;4.256;2022-07-30T06:34:22;1.27;;;0.80;;
48516;SDS011;34310;51.904;4.256;2022-07-30T06:36:50;0.90;;;0.75;;
48516;SDS011;34310;51.904;4.256;2022-07-30T06:39:17;1.30;;;0.77;;
48516;SDS011;34310;51.904;4.256;2022-07-30T06:42:04;2.13;;;1.00;;
48516;SDS011;34310;51.904;4.256;2022-07-30T06:44:32;0.80;;;0.80;;
48516;SDS011;34310;51.904;4.256;2022-07-30T06:46:59;1.13;;;0.88;;
48516;SDS011;34310;51.904;4.256;2022-07-30T06:49:34;0.90;;;0.85;;
48516;SDS011;34310;51.904;4.256;2022-07-30T06:52:02;1.88;;;0.80;;
48516;SDS011;34310;51.904;4.256;2022-07-30T06:54:30;1.58;;;0.98;;
48516;SDS011;34310;51.904;4.256;2022-07-30T06:56:57;1.02;;;0.80;;
48516;SDS011;34310;51.904;4.256;2022-07-30T06:59:25;1.30;;;0.90;;
48516;SDS011;34310;51.904;4.256;2022-07-30T07:01:53;1.40;;;0.80;;
48516;SDS011;34310;51.904;4.256;2022-07-30T07:04:20;0.90;;;0.80;;
48516;SDS011;34310;51.904;4.256;2022-07-30T07:06:48;0.90;;;0.80;;
48516;SDS011;34310;51.904;4.256;2022-07-30T07:09:15;1.17;;;0.90;;
48516;SDS011;34310;51.904;4.256;2022-07-30T07:11:42;2.40;;;0.80;;
48516;SDS011;34310;51.904;4.256;2022-07-30T07:14:10;2.13;;;0.88;;
48516;SDS011;34310;51.904;4.256;2022-07-30T07:16:37;4.60;;;0.98;;
48516;SDS011;34310;51.904;4.256;2022-07-30T07:19:04;4.97;;;1.05;;
48516;SDS011;34310;51.904;4.256;2022-07-30T07:21:32;6.72;;;1.40;;
48516;SDS011;34310;51.904;4.256;2022-07-30T07:23:59;5.25;;;1.00;;
48516;SDS011;34310;51.904;4.256;2022-07-30T07:26:28;4.63;;;1.20;;
48516;SDS011;34310;51.904;4.256;2022-07-30T07:28:57;2.58;;;1.15;;
48516;SDS011;34310;51.904;4.256;2022-07-30T07:31:30;4.10;;;1.70;;
48516;SDS011;34310;51.904;4.256;2022-07-30T07:34:17;3.03;;;1.00;;
48516;SDS011;34310;51.904;4.256;2022-07-30T07:36:44;3.42;;;1.00;;
48516;SDS011;34310;51.904;4.256;2022-07-30T07:39:12;3.22;;;1.20;;
48516;SDS011;34310;51.904;4.256;2022-07-30T07:41:40;4.32;;;1.20;;
48516;SDS011;34310;51.904;4.256;2022-07-30T07:46:41;2.97;;;0.98;;
48516;SDS011;34310;51.904;4.256;2022-07-30T07:49:09;2.65;;;1.30;;
48516;SDS011;34310;51.904;4.256;2022-07-30T07:51:36;5.07;;;1.25;;
48516;SDS011;34310;51.904;4.256;2022-07-30T07:54:15;25.92;;;2.35;;
48516;SDS011;34310;51.904;4.256;2022-07-30T07:56:48;26.13;;;2.92;;
48516;SDS011;34310;51.904;4.256;2022-07-30T07:59:22;14.23;;;2.08;;
48516;SDS011;34310;51.904;4.256;2022-07-30T08:02:01;17.33;;;2.03;;
48516;SDS011;34310;51.904;4.256;2022-07-30T08:04:29;10.80;;;2.08;;
48516;SDS011;34310;51.904;4.256;2022-07-30T08:06:56;10.25;;;1.90;;
48516;SDS011;34310;51.904;4.256;2022-07-30T08:09:24;6.95;;;1.40;;
48516;SDS011;34310;51.904;4.256;2022-07-30T08:12:08;6.55;;;2.00;;
48516;SDS011;34310;51.904;4.256;2022-07-30T08:14:35;19.80;;;2.92;;
48516;SDS011;34310;51.904;4.256;2022-07-30T08:17:03;22.67;;;3.38;;
48516;SDS011;34310;51.904;4.256;2022-07-30T08:19:31;39.45;;;3.75;;
48516;SDS011;34310;51.904;4.256;2022-07-30T08:21:59;18.35;;;2.70;;
48516;SDS011;34310;51.904;4.256;2022-07-30T08:24:26;29.85;;;3.17;;
48516;SDS011;34310;51.904;4.256;2022-07-30T08:26:53;23.00;;;2.47;;
48516;SDS011;34310;51.904;4.256;2022-07-30T08:29:21;31.38;;;3.92;;
48516;SDS011;34310;51.904;4.256;2022-07-30T08:31:48;35.28;;;3.33;;
48516;SDS011;34310;51.904;4.256;2022-07-30T08:34:16;27.67;;;2.65;;
48516;SDS011;34310;51.904;4.256;2022-07-30T08:36:50;36.67;;;3.42;;
48516;SDS011;34310;51.904;4.256;2022-07-30T08:39:18;21.08;;;3.17;;
48516;SDS011;34310;51.904;4.256;2022-07-30T08:41:45;36.05;;;3.15;;
48516;SDS011;34310;51.904;4.256;2022-07-30T08:44:13;20.17;;;2.72;;
48516;SDS011;34310;51.904;4.256;2022-07-30T08:46:45;25.10;;;2.85;;
48516;SDS011;34310;51.904;4.256;2022-07-30T08:49:13;28.08;;;2.33;;
48516;SDS011;34310;51.904;4.256;2022-07-30T08:51:41;33.30;;;2.97;;
48516;SDS011;34310;51.904;4.256;2022-07-30T08:54:08;19.00;;;2.25;;
48516;SDS011;34310;51.904;4.256;2022-07-30T08:56:36;28.02;;;2.65;;
48516;SDS011;34310;51.904;4.256;2022-07-30T08:59:03;23.15;;;2.70;;
48516;SDS011;34310;51.904;4.256;2022-07-30T09:01:31;21.98;;;2.30;;
48516;SDS011;34310;51.904;4.256;2022-07-30T09:03:58;20.63;;;2.38;;
48516;SDS011;34310;51.904;4.256;2022-07-30T09:06:26;17.50;;;2.50;;
48516;SDS011;34310;51.904;4.256;2022-07-30T09:08:54;24.73;;;2.50;;
48516;SDS011;34310;51.904;4.256;2022-07-30T09:11:21;22.55;;;2.50;;
48516;SDS011;34310;51.904;4.256;2022-07-30T09:13:48;13.32;;;2.13;;
48516;SDS011;34310;51.904;4.256;2022-07-30T09:16:23;9.45;;;2.00;;
48516;SDS011;34310;51.904;4.256;2022-07-30T09:18:52;9.60;;;2.15;;
48516;SDS011;34310;51.904;4.256;2022-07-30T09:23:55;13.27;;;1.92;;
48516;SDS011;34310;51.904;4.256;2022-07-30T09:26:29;9.77;;;1.83;;
48516;SDS011;34310;51.904;4.256;2022-07-30T09:29:16;6.63;;;1.70;;
48516;SDS011;34310;51.904;4.256;2022-07-30T09:31:55;7.53;;;1.75;;
48516;SDS011;34310;51.904;4.256;2022-07-30T09:34:23;12.18;;;1.90;;
48516;SDS011;34310;51.904;4.256;2022-07-30T09:36:56;16.23;;;1.80;;
48516;SDS011;34310;51.904;4.256;2022-07-30T09:39:33;14.52;;;2.25;;
48516;SDS011;34310;51.904;4.256;2022-07-30T09:42:02;18.27;;;2.13;;
48516;SDS011;34310;51.904;4.256;2022-07-30T09:44:42;20.08;;;3.03;;
48516;SDS011;34310;51.904;4.256;2022-07-30T09:47:17;13.75;;;2.17;;
48516;SDS011;34310;51.904;4.256;2022-07-30T09:50:06;19.85;;;2.78;;
48516;SDS011;34310;51.904;4.256;2022-07-30T09:52:36;34.78;;;3.42;;
48516;SDS011;34310;51.904;4.256;2022-07-30T09:55:09;23.48;;;3.03;;
48516;SDS011;34310;51.904;4.256;2022-07-30T09:57:53;18.83;;;2.55;;
48516;SDS011;34310;51.904;4.256;2022-07-30T10:00:25;21.33;;;2.30;;
48516;SDS011;34310;51.904;4.256;2022-07-30T10:02:54;13.02;;;1.80;;
48516;SDS011;34310;51.904;4.256;2022-07-30T10:05:22;12.80;;;1.80;;
48516;SDS011;34310;51.904;4.256;2022-07-30T10:10:27;9.43;;;1.70;;
48516;SDS011;34310;51.904;4.256;2022-07-30T10:12:57;10.80;;;1.73;;
48516;SDS011;34310;51.904;4.256;2022-07-30T10:15:30;11.68;;;1.70;;
48516;SDS011;34310;51.904;4.256;2022-07-30T10:18:00;14.35;;;1.88;;
48516;SDS011;34310;51.904;4.256;2022-07-30T10:20:32;8.93;;;1.52;;
48516;SDS011;34310;51.904;4.256;2022-07-30T10:23:00;14.43;;;1.83;;
48516;SDS011;34310;51.904;4.256;2022-07-30T10:25:34;14.27;;;1.50;;
48516;SDS011;34310;51.904;4.256;2022-07-30T10:28:14;8.60;;;1.30;;
48516;SDS011;34310;51.904;4.256;2022-07-30T10:30:43;6.93;;;1.17;;
48516;SDS011;34310;51.904;4.256;2022-07-30T10:33:11;5.68;;;1.10;;
48516;SDS011;34310;51.904;4.256;2022-07-30T10:35:58;3.42;;;1.27;;
48516;SDS011;34310;51.904;4.256;2022-07-30T10:38:29;4.47;;;1.23;;
48516;SDS011;34310;51.904;4.256;2022-07-30T10:49:32;10.73;;;1.30;;
48516;SDS011;34310;51.904;4.256;2022-07-30T10:52:08;12.32;;;1.60;;
48516;SDS011;34310;51.904;4.256;2022-07-30T10:54:41;16.42;;;1.73;;
48516;SDS011;34310;51.904;4.256;2022-07-30T10:57:16;14.65;;;1.88;;
48516;SDS011;34310;51.904;4.256;2022-07-30T11:02:27;6.40;;;1.20;;
48516;SDS011;34310;51.904;4.256;2022-07-30T11:07:43;6.45;;;1.20;;
48516;SDS011;34310;51.904;4.256;2022-07-30T11:13:07;8.80;;;1.50;;
48516;SDS011;34310;51.904;4.256;2022-07-30T11:18:25;5.82;;;0.88;;
48516;SDS011;34310;51.904;4.256;2022-07-30T11:21:15;7.45;;;1.08;;
48516;SDS011;34310;51.904;4.256;2022-07-30T11:23:47;9.25;;;1.15;;
48516;SDS011;34310;51.904;4.256;2022-07-30T11:26:55;6.07;;;1.17;;
48516;SDS011;34310;51.904;4.256;2022-07-30T11:32:23;10.18;;;1.35;;
48516;SDS011;34310;51.904;4.256;2022-07-30T11:38:10;7.40;;;1.05;;
48516;SDS011;34310;51.904;4.256;2022-07-30T11:43:32;9.00;;;1.40;;
48516;SDS011;34310;51.904;4.256;2022-07-30T11:46:15;6.78;;;1.67;;
48516;SDS011;34310;51.904;4.256;2022-07-30T11:48:55;4.78;;;1.60;;
48516;SDS011;34310;51.904;4.256;2022-07-30T11:51:24;6.75;;;1.20;;
48516;SDS011;34310;51.904;4.256;2022-07-30T11:54:04;11.05;;;1.42;;
48516;SDS011;34310;51.904;4.256;2022-07-30T11:56:33;6.85;;;1.40;;
48516;SDS011;34310;51.904;4.256;2022-07-30T11:59:01;8.00;;;1.67;;
48516;SDS011;34310;51.904;4.256;2022-07-30T12:01:29;10.75;;;1.58;;
48516;SDS011;34310;51.904;4.256;2022-07-30T12:04:01;19.83;;;1.90;;
48516;SDS011;34310;51.904;4.256;2022-07-30T12:06:30;15.63;;;1.88;;
48516;SDS011;34310;51.904;4.256;2022-07-30T12:08:57;18.83;;;1.80;;
48516;SDS011;34310;51.904;4.256;2022-07-30T12:11:32;11.23;;;1.40;;
48516;SDS011;34310;51.904;4.256;2022-07-30T12:14:00;12.52;;;1.67;;
48516;SDS011;34310;51.904;4.256;2022-07-30T12:16:29;9.85;;;1.48;;
48516;SDS011;34310;51.904;4.256;2022-07-30T12:19:04;11.02;;;1.23;;
48516;SDS011;34310;51.904;4.256;2022-07-30T12:21:34;17.15;;;1.80;;
48516;SDS011;34310;51.904;4.256;2022-07-30T12:24:03;12.60;;;1.77;;
48516;SDS011;34310;51.904;4.256;2022-07-30T12:26:35;10.07;;;1.65;;
48516;SDS011;34310;51.904;4.256;2022-07-30T12:29:03;13.48;;;1.77;;
48516;SDS011;34310;51.904;4.256;2022-07-30T12:31:35;10.57;;;1.45;;
48516;SDS011;34310;51.904;4.256;2022-07-30T12:34:21;10.15;;;1.55;;
48516;SDS011;34310;51.904;4.256;2022-07-30T12:36:49;26.85;;;2.30;;
48516;SDS011;34310;51.904;4.256;2022-07-30T12:39:18;21.83;;;1.92;;
48516;SDS011;34310;51.904;4.256;2022-07-30T12:41:46;18.90;;;2.03;;
48516;SDS011;34310;51.904;4.256;2022-07-30T12:44:33;16.88;;;1.98;;
48516;SDS011;34310;51.904;4.256;2022-07-30T12:47:02;7.82;;;1.60;;
48516;SDS011;34310;51.904;4.256;2022-07-30T12:49:32;11.73;;;1.38;;
48516;SDS011;34310;51.904;4.256;2022-07-30T12:52:18;13.40;;;1.77;;
48516;SDS011;34310;51.904;4.256;2022-07-30T12:55:06;14.85;;;1.70;;
48516;SDS011;34310;51.904;4.256;2022-07-30T13:03:21;7.80;;;1.10;;
48516;SDS011;34310;51.904;4.256;2022-07-30T13:05:53;5.75;;;1.10;;
48516;SDS011;34310;51.904;4.256;2022-07-30T13:11:18;6.55;;;1.10;;
48516;SDS011;34310;51.904;4.256;2022-07-30T13:13:49;7.68;;;1.20;;
48516;SDS011;34310;51.904;4.256;2022-07-30T13:16:18;3.10;;;0.90;;
48516;SDS011;34310;51.904;4.256;2022-07-30T13:18:45;4.20;;;1.10;;
48516;SDS011;34310;51.904;4.256;2022-07-30T13:21:13;8.75;;;1.35;;
48516;SDS011;34310;51.904;4.256;2022-07-30T13:23:40;6.68;;;1.33;;
48516;SDS011;34310;51.904;4.256;2022-07-30T13:26:08;5.55;;;1.15;;
48516;SDS011;34310;51.904;4.256;2022-07-30T13:28:36;5.35;;;1.17;;
48516;SDS011;34310;51.904;4.256;2022-07-30T13:31:04;3.42;;;1.10;;
48516;SDS011;34310;51.904;4.256;2022-07-30T13:33:33;4.93;;;1.05;;
48516;SDS011;34310;51.904;4.256;2022-07-30T13:36:01;4.88;;;1.00;;
48516;SDS011;34310;51.904;4.256;2022-07-30T13:38:29;3.00;;;1.00;;
48516;SDS011;34310;51.904;4.256;2022-07-30T13:40:57;4.30;;;0.98;;
48516;SDS011;34310;51.904;4.256;2022-07-30T13:43:28;18.63;;;1.40;;
48516;SDS011;34310;51.904;4.256;2022-07-30T13:45:59;18.80;;;1.70;;
48516;SDS011;34310;51.904;4.256;2022-07-30T13:48:28;18.95;;;1.85;;
48516;SDS011;34310;51.904;4.256;2022-07-30T13:50:56;15.75;;;1.30;;
48516;SDS011;34310;51.904;4.256;2022-07-30T13:53:24;17.42;;;1.63;;
48516;SDS011;34310;51.904;4.256;2022-07-30T13:55:52;9.05;;;2.00;;
48516;SDS011;34310;51.904;4.256;2022-07-30T13:58:19;13.32;;;1.80;;
48516;SDS011;34310;51.904;4.256;2022-07-30T14:00:47;9.05;;;1.60;;
48516;SDS011;34310;51.904;4.256;2022-07-30T14:03:14;8.40;;;1.85;;
48516;SDS011;34310;51.904;4.256;2022-07-30T14:05:41;37.03;;;3.20;;
48516;SDS011;34310;51.904;4.256;2022-07-30T14:08:09;39.25;;;2.97;;
48516;SDS011;34310;51.904;4.256;2022-07-30T14:10:37;36.65;;;3.35;;
48516;SDS011;34310;51.904;4.256;2022-07-30T14:13:06;20.85;;;2.72;;
48516;SDS011;34310;51.904;4.256;2022-07-30T14:15:44;22.73;;;2.45;;
48516;SDS011;34310;51.904;4.256;2022-07-30T14:18:11;17.38;;;2.33;;
48516;SDS011;34310;51.904;4.256;2022-07-30T14:20:38;20.55;;;2.42;;
48516;SDS011;34310;51.904;4.256;2022-07-30T14:23:11;23.85;;;2.38;;
48516;SDS011;34310;51.904;4.256;2022-07-30T14:25:39;25.92;;;2.45;;
48516;SDS011;34310;51.904;4.256;2022-07-30T14:28:08;11.57;;;2.33;;
48516;SDS011;34310;51.904;4.256;2022-07-30T14:30:36;18.08;;;2.38;;
48516;SDS011;34310;51.904;4.256;2022-07-30T14:33:03;24.13;;;2.70;;
48516;SDS011;34310;51.904;4.256;2022-07-30T14:35:31;31.23;;;3.28;;
48516;SDS011;34310;51.904;4.256;2022-07-30T14:37:58;20.95;;;2.45;;
48516;SDS011;34310;51.904;4.256;2022-07-30T14:40:25;32.45;;;3.15;;
48516;SDS011;34310;51.904;4.256;2022-07-30T14:42:53;45.05;;;4.68;;
48516;SDS011;34310;51.904;4.256;2022-07-30T14:45:21;33.63;;;3.90;;
48516;SDS011;34310;51.904;4.256;2022-07-30T14:47:50;33.72;;;3.83;;
48516;SDS011;34310;51.904;4.256;2022-07-30T14:50:18;48.35;;;5.18;;
48516;SDS011;34310;51.904;4.256;2022-07-30T14:52:45;60.58;;;5.72;;
48516;SDS011;34310;51.904;4.256;2022-07-30T14:55:13;44.85;;;5.35;;
48516;SDS011;34310;51.904;4.256;2022-07-30T14:57:41;29.58;;;3.95;;
48516;SDS011;34310;51.904;4.256;2022-07-30T15:00:08;36.60;;;4.35;;
48516;SDS011;34310;51.904;4.256;2022-07-30T15:02:37;29.25;;;3.78;;
48516;SDS011;34310;51.904;4.256;2022-07-30T15:05:06;28.17;;;3.85;;
48516;SDS011;34310;51.904;4.256;2022-07-30T15:07:34;21.85;;;2.90;;
48516;SDS011;34310;51.904;4.256;2022-07-30T15:10:01;24.63;;;3.00;;
48516;SDS011;34310;51.904;4.256;2022-07-30T15:12:32;12.50;;;2.47;;
48516;SDS011;34310;51.904;4.256;2022-07-30T15:15:01;18.27;;;2.42;;
48516;SDS011;34310;51.904;4.256;2022-07-30T15:17:31;17.88;;;2.80;;
48516;SDS011;34310;51.904;4.256;2022-07-30T15:19:58;19.10;;;3.50;;
48516;SDS011;34310;51.904;4.256;2022-07-30T15:22:26;18.95;;;2.60;;
48516;SDS011;34310;51.904;4.256;2022-07-30T15:24:54;18.70;;;2.65;;
48516;SDS011;34310;51.904;4.256;2022-07-30T15:27:21;25.20;;;2.88;;
48516;SDS011;34310;51.904;4.256;2022-07-30T15:29:59;26.10;;;2.70;;
48516;SDS011;34310;51.904;4.256;2022-07-30T15:32:26;20.25;;;3.17;;
48516;SDS011;34310;51.904;4.256;2022-07-30T15:34:54;25.00;;;2.83;;
48516;SDS011;34310;51.904;4.256;2022-07-30T15:37:21;26.52;;;2.85;;
48516;SDS011;34310;51.904;4.256;2022-07-30T15:39:49;28.13;;;3.30;;
48516;SDS011;34310;51.904;4.256;2022-07-30T15:42:16;17.60;;;2.72;;
48516;SDS011;34310;51.904;4.256;2022-07-30T15:44:43;15.73;;;2.70;;
48516;SDS011;34310;51.904;4.256;2022-07-30T15:47:14;12.95;;;2.83;;